createdAt,value
2022-08-01T00:00:37.697Z,80.88
2022-08-01T00:03:09.075Z,81.84
2022-08-01T00:05:36.041Z,82.75
2022-08-01T00:08:02.831Z,82.38
2022-08-01T00:10:29.738Z,81.55
2022-08-01T00:12:56.687Z,81.64
2022-08-01T00:15:23.471Z,81.96
2022-08-01T00:17:50.193Z,82.31
2022-08-01T00:20:17.162Z,82.42
2022-08-01T00:22:43.986Z,82.68
2022-08-01T00:25:11.036Z,82.27
2022-08-01T00:27:38.130Z,83.47
2022-08-01T00:30:13.197Z,82.96
2022-08-01T00:32:42.809Z,83.41
2022-08-01T00:35:10.028Z,82.11
2022-08-01T00:37:36.763Z,83.08
2022-08-01T00:40:04.958Z,83.52
2022-08-01T00:42:31.837Z,83.96
2022-08-01T00:44:58.621Z,83.53
2022-08-01T00:47:25.546Z,84.80
2022-08-01T00:49:52.383Z,83.50
2022-08-01T00:52:19.219Z,82.78
2022-08-01T00:54:46.506Z,82.47
2022-08-01T00:57:15.193Z,81.09
2022-08-01T00:59:42.419Z,80.00
2022-08-01T01:02:15.505Z,80.16
2022-08-01T01:04:43.818Z,78.84
2022-08-01T01:07:28.596Z,78.76
2022-08-01T01:10:01.600Z,77.92
2022-08-01T01:12:42.794Z,78.70
2022-08-01T01:15:17.924Z,78.23
2022-08-01T01:18:01.779Z,78.72
2022-08-01T01:20:33.140Z,79.21
2022-08-01T01:23:37.513Z,79.47
2022-08-01T01:26:22.201Z,80.71
2022-08-01T01:29:00.778Z,81.06
2022-08-01T01:31:28.621Z,81.61
2022-08-01T01:33:58.670Z,81.31
2022-08-01T01:36:28.180Z,81.95
2022-08-01T01:38:55.971Z,82.87
2022-08-01T01:41:24.190Z,81.17
2022-08-01T01:43:52.816Z,82.33
2022-08-01T01:46:24.557Z,80.57
2022-08-01T01:48:52.799Z,80.34
2022-08-01T01:51:23.199Z,81.71
2022-08-01T01:53:52.698Z,82.10
2022-08-01T01:56:21.249Z,82.24
2022-08-01T01:58:54.649Z,82.83
2022-08-01T02:01:58.338Z,82.93
2022-08-01T02:04:10.475Z,83.47
2022-08-01T02:06:38.815Z,82.72
2022-08-01T02:09:07.236Z,83.97
2022-08-01T02:11:36.268Z,84.66
2022-08-01T02:14:04.672Z,85.18
2022-08-01T02:16:35.971Z,83.94
2022-08-01T02:19:04.328Z,83.93
2022-08-01T02:21:38.327Z,85.38
2022-08-01T02:24:37.843Z,86.02
2022-08-01T02:27:15.494Z,85.15
2022-08-01T02:29:48.117Z,85.80
2022-08-01T02:32:47.584Z,85.48
2022-08-01T02:35:27.454Z,85.32
2022-08-01T02:37:56.368Z,86.51
2022-08-01T02:40:24.329Z,88.01
2022-08-01T02:42:53.656Z,91.03
2022-08-01T02:45:23.527Z,91.28
2022-08-01T02:47:52.724Z,89.94
2022-08-01T02:50:21.214Z,89.78
2022-08-01T02:52:51.763Z,89.61
2022-08-01T02:55:20.725Z,88.38
2022-08-01T02:57:52.360Z,87.64
2022-08-01T03:00:25.872Z,88.43
2022-08-01T03:02:55.959Z,88.00
2022-08-01T03:05:24.950Z,87.17
2022-08-01T03:07:54.865Z,84.35
2022-08-01T03:10:22.192Z,85.16
2022-08-01T03:12:51.060Z,86.13
2022-08-01T03:15:19.850Z,85.32
2022-08-01T03:17:48.953Z,84.76
2022-08-01T03:20:17.578Z,86.11
2022-08-01T03:22:47.153Z,90.48
2022-08-01T03:25:16.224Z,91.11
2022-08-01T03:27:51.316Z,89.33
2022-08-01T03:30:18.576Z,91.23
2022-08-01T03:32:45.361Z,89.77
2022-08-01T03:35:12.154Z,87.81
2022-08-01T03:38:14.315Z,86.96
2022-08-01T03:40:39.635Z,87.77
2022-08-01T03:43:21.379Z,85.96
2022-08-01T03:45:52.413Z,84.65
2022-08-01T03:48:23.589Z,85.58
2022-08-01T03:50:53.021Z,84.50
2022-08-01T03:53:25.787Z,83.10
2022-08-01T03:55:55.107Z,82.64
2022-08-01T03:58:22.668Z,82.76
2022-08-01T04:00:50.174Z,81.84
2022-08-01T04:03:17.897Z,80.71
2022-08-01T04:05:44.957Z,81.20
2022-08-01T04:08:11.758Z,80.49
2022-08-01T04:10:39.376Z,80.38
2022-08-01T04:13:06.450Z,79.67
2022-08-01T04:15:33.305Z,79.19
2022-08-01T04:18:00.099Z,78.85
2022-08-01T04:20:27.102Z,77.94
2022-08-01T04:22:53.876Z,77.65
2022-08-01T04:25:29.159Z,76.94
2022-08-01T04:27:58.244Z,77.11
2022-08-01T04:30:28.056Z,76.41
2022-08-01T04:32:56.719Z,75.51
2022-08-01T04:36:01.630Z,75.66
2022-08-01T04:38:20.399Z,76.08
2022-08-01T04:40:47.869Z,75.23
2022-08-01T04:43:15.512Z,75.22
2022-08-01T04:45:44.774Z,74.64
2022-08-01T04:48:13.013Z,74.10
2022-08-01T04:50:42.908Z,74.09
2022-08-01T04:53:17.925Z,74.28
2022-08-01T04:55:47.033Z,73.84
2022-08-01T04:58:18.331Z,73.11
2022-08-01T05:00:46.187Z,73.00
2022-08-01T05:03:13.532Z,71.87
2022-08-01T05:05:40.296Z,71.74
2022-08-01T05:08:07.383Z,70.75
2022-08-01T05:10:34.771Z,70.15
2022-08-01T05:13:01.781Z,70.19
2022-08-01T05:15:28.566Z,68.58
2022-08-01T05:17:55.771Z,68.34
2022-08-01T05:20:22.595Z,67.98
2022-08-01T05:22:49.613Z,67.21
2022-08-01T05:25:20.394Z,67.21
2022-08-01T05:28:03.430Z,66.58
2022-08-01T05:30:30.497Z,66.58
2022-08-01T05:32:57.456Z,66.04
2022-08-01T05:35:24.276Z,66.09
2022-08-01T05:38:13.552Z,65.51
2022-08-01T05:40:41.804Z,64.54
2022-08-01T05:43:08.667Z,65.08
2022-08-01T05:45:35.656Z,64.41
2022-08-01T05:48:02.390Z,64.55
2022-08-01T05:50:29.167Z,63.55
2022-08-01T05:52:56.095Z,64.26
2022-08-01T05:55:22.856Z,64.26
2022-08-01T05:57:49.625Z,63.32
2022-08-01T06:00:17.177Z,63.33
2022-08-01T06:02:44.464Z,62.58
2022-08-01T06:05:13.540Z,62.38
2022-08-01T06:07:41.323Z,61.57
2022-08-01T06:10:10.220Z,62.13
2022-08-01T06:12:37.837Z,61.31
2022-08-01T06:15:06.832Z,61.03
2022-08-01T06:17:33.975Z,61.14
2022-08-01T06:20:00.860Z,61.26
2022-08-01T06:22:28.042Z,59.71
2022-08-01T06:24:54.780Z,60.64
2022-08-01T06:27:22.756Z,59.75
2022-08-01T06:29:53.441Z,58.85
2022-08-01T06:32:26.507Z,59.49
2022-08-01T06:34:55.291Z,58.49
2022-08-01T06:37:22.630Z,58.18
2022-08-01T06:39:50.535Z,57.58
2022-08-01T06:42:18.390Z,57.49
2022-08-01T06:44:45.584Z,56.58
2022-08-01T06:47:12.570Z,56.50
2022-08-01T06:49:39.707Z,57.04
2022-08-01T06:52:07.044Z,56.41
2022-08-01T06:54:34.215Z,55.67
2022-08-01T06:57:01.296Z,55.73
2022-08-01T06:59:28.152Z,54.84
2022-08-01T07:01:54.909Z,55.24
2022-08-01T07:04:21.993Z,53.84
2022-08-01T07:06:49.176Z,53.70
2022-08-01T07:09:15.928Z,53.24
2022-08-01T07:11:42.861Z,54.40
2022-08-01T07:14:09.610Z,51.95
2022-08-01T07:16:36.443Z,51.79
2022-08-01T07:19:03.465Z,51.92
2022-08-01T07:21:40.090Z,52.48
2022-08-01T07:24:13.572Z,51.47
2022-08-01T07:26:52.190Z,51.21
2022-08-01T07:29:27.950Z,51.73
2022-08-01T07:31:56.383Z,50.68
2022-08-01T07:34:24.293Z,50.89
2022-08-01T07:36:52.295Z,49.25
2022-08-01T07:39:19.283Z,48.15
2022-08-01T07:42:05.948Z,48.10
2022-08-01T07:44:33.071Z,46.93
2022-08-01T07:47:00.099Z,48.38
2022-08-01T07:49:26.917Z,47.42
2022-08-01T07:52:02.504Z,47.94
2022-08-01T07:54:34.371Z,45.27
2022-08-01T07:57:02.820Z,44.40
2022-08-01T07:59:29.684Z,42.79
2022-08-01T08:01:56.927Z,42.61
2022-08-01T08:04:23.795Z,42.84
2022-08-01T08:06:50.641Z,41.78
2022-08-01T08:09:18.254Z,39.73
2022-08-01T08:11:47.751Z,39.20
2022-08-01T08:14:16.349Z,41.15
2022-08-01T08:16:44.233Z,38.63
2022-08-01T08:19:12.082Z,37.51
2022-08-01T08:21:39.205Z,40.31
2022-08-01T08:24:26.363Z,41.04
2022-08-01T08:26:59.585Z,39.71
2022-08-01T08:29:27.471Z,40.65
2022-08-01T08:31:58.652Z,41.60
2022-08-01T08:34:26.855Z,41.81
2022-08-01T08:36:58.886Z,42.30
2022-08-01T08:39:26.707Z,43.78
2022-08-01T08:41:53.623Z,43.36
2022-08-01T08:44:23.705Z,43.52
2022-08-01T08:46:52.369Z,44.70
2022-08-01T08:49:22.062Z,44.42
2022-08-01T08:51:52.736Z,44.59
2022-08-01T08:54:29.086Z,44.88
2022-08-01T08:57:00.941Z,46.23
2022-08-01T08:59:29.276Z,46.22
2022-08-01T09:01:57.695Z,46.41
2022-08-01T09:04:27.075Z,45.23
2022-08-01T09:06:55.202Z,46.08
2022-08-01T09:09:23.156Z,45.74
2022-08-01T09:11:57.058Z,44.98
2022-08-01T09:14:28.067Z,44.91
2022-08-01T09:17:11.349Z,45.08
2022-08-01T09:19:42.139Z,45.41
2022-08-01T09:22:11.669Z,45.25
2022-08-01T09:24:40.901Z,45.05
2022-08-01T09:27:24.232Z,45.78
2022-08-01T09:30:00.923Z,45.41
2022-08-01T09:32:36.067Z,44.20
2022-08-01T09:35:29.911Z,44.63
2022-08-01T09:38:13.503Z,45.71
2022-08-01T09:40:59.112Z,46.25
2022-08-01T09:43:28.225Z,44.28
2022-08-01T09:45:58.100Z,43.94
2022-08-01T09:48:28.529Z,43.61
2022-08-01T09:51:03.839Z,43.71
2022-08-01T09:53:52.189Z,42.86
2022-08-01T09:56:21.621Z,41.96
2022-08-01T09:59:01.940Z,41.78
2022-08-01T10:01:49.664Z,40.91
2022-08-01T10:04:18.908Z,41.04
2022-08-01T10:06:50.622Z,41.65
2022-08-01T10:09:36.083Z,41.18
2022-08-01T10:12:08.726Z,42.25
2022-08-01T10:14:37.737Z,41.53
2022-08-01T10:17:18.529Z,40.04
2022-08-01T10:19:48.000Z,40.84
2022-08-01T10:22:19.256Z,39.99
2022-08-01T10:24:48.190Z,39.15
2022-08-01T10:27:24.510Z,39.01
2022-08-01T10:30:15.544Z,39.87
2022-08-01T10:32:50.834Z,39.16
2022-08-01T10:35:45.773Z,41.53
2022-08-01T10:38:10.727Z,40.43
2022-08-01T10:40:42.539Z,39.71
2022-08-01T10:43:11.895Z,40.49
2022-08-01T10:45:39.495Z,38.88
2022-08-01T10:48:31.192Z,39.15
2022-08-01T10:51:04.804Z,39.04
2022-08-01T10:53:54.200Z,39.69
2022-08-01T10:56:26.588Z,39.45
2022-08-01T10:59:06.026Z,40.75
2022-08-01T11:01:34.599Z,38.70
2022-08-01T11:04:17.794Z,40.13
2022-08-01T11:07:06.362Z,39.34
2022-08-01T11:09:49.554Z,40.17
2022-08-01T11:12:24.949Z,40.37
2022-08-01T11:15:02.394Z,38.49
2022-08-01T11:17:49.629Z,36.25
2022-08-01T11:20:31.312Z,36.99
2022-08-01T11:23:07.722Z,35.98
2022-08-01T11:26:03.493Z,36.54
2022-08-01T11:28:34.861Z,35.41
2022-08-01T11:31:10.978Z,35.41
2022-08-01T11:33:41.397Z,34.90
2022-08-01T11:36:11.060Z,33.84
2022-08-01T11:38:48.817Z,34.92
2022-08-01T11:41:18.759Z,35.85
2022-08-01T11:44:09.095Z,33.65
2022-08-01T11:46:51.400Z,33.02
2022-08-01T11:49:43.483Z,32.93
2022-08-01T11:52:17.021Z,33.96
2022-08-01T11:54:50.122Z,35.45
2022-08-01T11:57:24.267Z,34.77
2022-08-01T12:00:16.968Z,36.69
2022-08-01T12:02:46.064Z,35.78
2022-08-01T12:05:24.591Z,34.45
2022-08-01T12:07:52.872Z,34.62
2022-08-01T12:10:21.991Z,33.77
2022-08-01T12:12:53.497Z,34.66
2022-08-01T12:15:23.668Z,33.87
2022-08-01T12:17:59.908Z,34.35
2022-08-01T12:20:33.867Z,33.92
2022-08-01T12:23:03.470Z,34.23
2022-08-01T12:25:30.679Z,32.81
2022-08-01T12:28:02.475Z,34.86
2022-08-01T12:30:31.853Z,34.80
2022-08-01T12:32:59.237Z,35.46
2022-08-01T12:35:28.034Z,35.42
2022-08-01T12:38:01.459Z,33.71
2022-08-01T12:40:31.005Z,34.89
2022-08-01T12:43:03.447Z,33.17
2022-08-01T12:45:40.709Z,33.03
2022-08-01T12:48:21.473Z,34.21
2022-08-01T12:50:53.234Z,32.21
2022-08-01T12:53:21.802Z,32.83
2022-08-01T12:55:58.576Z,33.28
2022-08-01T12:58:35.758Z,33.23
2022-08-01T13:01:08.639Z,33.56
2022-08-01T13:03:35.432Z,34.23
2022-08-01T13:06:11.066Z,33.71
2022-08-01T13:08:39.437Z,31.91
2022-08-01T13:11:15.554Z,31.70
2022-08-01T13:13:50.579Z,32.61
2022-08-01T13:16:34.262Z,31.91
2022-08-01T13:19:10.149Z,30.85
2022-08-01T13:21:54.468Z,31.51
2022-08-01T13:24:27.677Z,31.03
2022-08-01T13:26:59.459Z,30.26
2022-08-01T13:29:35.626Z,31.01
2022-08-01T13:32:28.561Z,33.17
2022-08-01T13:35:10.542Z,31.23
2022-08-01T13:37:38.998Z,30.14
2022-08-01T13:40:08.411Z,28.50
2022-08-01T13:42:35.246Z,29.78
2022-08-01T13:45:02.958Z,28.41
2022-08-01T13:47:32.582Z,28.62
2022-08-01T13:50:04.034Z,29.10
2022-08-01T13:52:31.791Z,29.82
2022-08-01T13:54:59.721Z,28.69
2022-08-01T13:57:26.807Z,26.79
2022-08-01T14:00:09.593Z,27.31
2022-08-01T14:02:36.573Z,29.67
2022-08-01T14:05:03.754Z,30.55
2022-08-01T14:07:30.723Z,29.10
2022-08-01T14:10:18.256Z,31.20
2022-08-01T14:12:45.799Z,30.94
2022-08-01T14:15:18.196Z,30.80
2022-08-01T14:18:06.190Z,30.25
2022-08-01T14:20:34.839Z,29.17
2022-08-01T14:23:02.010Z,30.38
2022-08-01T14:26:01.428Z,28.39
2022-08-01T14:28:16.272Z,30.29
2022-08-01T14:30:43.723Z,30.08
2022-08-01T14:33:11.927Z,30.17
2022-08-01T14:36:05.650Z,29.12
2022-08-01T14:38:33.397Z,28.79
2022-08-01T14:41:03.708Z,27.73
2022-08-01T14:43:33.593Z,27.70
2022-08-01T14:46:02.061Z,27.92
2022-08-01T14:48:30.106Z,26.29
2022-08-01T14:50:58.631Z,27.78
2022-08-01T14:53:25.935Z,28.84
2022-08-01T14:55:52.812Z,27.57
2022-08-01T14:58:19.888Z,28.66
2022-08-01T15:00:47.078Z,27.29
2022-08-01T15:03:13.991Z,25.71
2022-08-01T15:05:41.014Z,26.68
2022-08-01T15:08:07.776Z,26.91
2022-08-01T15:10:34.601Z,25.85
2022-08-01T15:13:02.533Z,25.31
2022-08-01T15:15:30.032Z,24.10
2022-08-01T15:17:57.256Z,24.67
2022-08-01T15:20:24.857Z,24.58
2022-08-01T15:22:51.718Z,24.47
2022-08-01T15:25:18.506Z,24.50
2022-08-01T15:27:45.508Z,22.96
2022-08-01T15:30:12.772Z,23.08
2022-08-01T15:32:39.536Z,23.23
2022-08-01T15:35:07.903Z,21.93
2022-08-01T15:37:37.347Z,21.97
2022-08-01T15:40:06.971Z,22.01
2022-08-01T15:42:33.983Z,23.61
2022-08-01T15:45:01.157Z,22.66
2022-08-01T15:47:28.014Z,21.74
2022-08-01T15:49:56.758Z,21.59
2022-08-01T15:52:23.492Z,21.95
2022-08-01T15:54:58.927Z,24.29
2022-08-01T15:57:25.708Z,25.48
2022-08-01T15:59:52.546Z,26.84
2022-08-01T16:02:19.676Z,27.69
2022-08-01T16:04:46.550Z,27.73
2022-08-01T16:07:14.450Z,30.04
2022-08-01T16:09:41.452Z,31.77
2022-08-01T16:12:10.181Z,32.66
2022-08-01T16:14:37.077Z,32.17
2022-08-01T16:17:04.084Z,33.45
2022-08-01T16:19:30.985Z,33.27
2022-08-01T16:21:57.881Z,33.73
2022-08-01T16:24:29.064Z,33.29
2022-08-01T16:26:55.963Z,33.80
2022-08-01T16:29:22.841Z,34.29
2022-08-01T16:32:00.396Z,33.55
2022-08-01T16:34:36.678Z,33.93
2022-08-01T16:37:04.243Z,32.74
2022-08-01T16:39:35.220Z,34.73
2022-08-01T16:42:02.032Z,34.77
2022-08-01T16:44:34.337Z,32.67
2022-08-01T16:47:03.602Z,30.15
2022-08-01T16:49:32.072Z,27.79
2022-08-01T16:51:59.134Z,26.80
2022-08-01T16:54:26.576Z,26.85
2022-08-01T16:56:58.084Z,25.29
2022-08-01T16:59:35.454Z,24.64
2022-08-01T17:02:09.966Z,25.52
2022-08-01T17:04:36.824Z,24.92
2022-08-01T17:07:03.885Z,25.03
2022-08-01T17:09:30.928Z,25.56
2022-08-01T17:11:57.657Z,24.71
2022-08-01T17:14:24.422Z,24.99
2022-08-01T17:16:51.440Z,24.27
2022-08-01T17:19:18.257Z,25.16
2022-08-01T17:21:45.585Z,26.42
2022-08-01T17:24:16.697Z,27.09
2022-08-01T17:26:43.588Z,27.78
2022-08-01T17:29:13.386Z,30.42
2022-08-01T17:31:40.489Z,31.40
2022-08-01T17:34:07.216Z,33.11
2022-08-01T17:36:34.125Z,34.45
2022-08-01T17:39:02.781Z,36.42
2022-08-01T17:41:29.553Z,37.07
2022-08-01T17:43:56.408Z,38.31
2022-08-01T17:46:23.464Z,39.04
2022-08-01T17:48:50.286Z,39.25
2022-08-01T17:51:22.448Z,40.25
2022-08-01T17:53:55.785Z,41.14
2022-08-01T17:56:25.935Z,40.97
2022-08-01T17:58:53.433Z,41.00
2022-08-01T18:01:21.529Z,42.04
2022-08-01T18:03:49.003Z,42.00
2022-08-01T18:06:23.102Z,41.65
2022-08-01T18:08:55.260Z,41.99
2022-08-01T18:11:23.038Z,43.19
2022-08-01T18:13:51.631Z,43.07
2022-08-01T18:16:19.220Z,43.18
2022-08-01T18:18:46.388Z,44.03
2022-08-01T18:21:13.234Z,44.57
2022-08-01T18:23:40.242Z,44.08
2022-08-01T18:26:11.323Z,45.17
2022-08-01T18:28:46.493Z,45.04
2022-08-01T18:31:16.872Z,45.32
2022-08-01T18:33:44.017Z,45.11
2022-08-01T18:36:18.356Z,45.82
2022-08-01T18:38:58.803Z,45.86
2022-08-01T18:41:25.865Z,46.30
2022-08-01T18:44:03.826Z,46.39
2022-08-01T18:46:34.457Z,46.57
2022-08-01T18:49:01.378Z,46.41
2022-08-01T18:51:28.635Z,47.04
2022-08-01T18:53:57.677Z,46.92
2022-08-01T18:56:24.680Z,47.38
2022-08-01T18:58:52.707Z,48.00
2022-08-01T19:01:19.808Z,48.80
2022-08-01T19:03:47.112Z,48.79
2022-08-01T19:06:14.392Z,49.52
2022-08-01T19:08:41.792Z,49.20
2022-08-01T19:11:08.574Z,50.24
2022-08-01T19:13:35.531Z,49.74
2022-08-01T19:16:02.528Z,49.68
2022-08-01T19:18:29.390Z,49.54
2022-08-01T19:20:56.172Z,50.47
2022-08-01T19:23:42.018Z,50.92
2022-08-01T19:26:12.726Z,51.00
2022-08-01T19:28:51.107Z,50.79
2022-08-01T19:31:23.216Z,51.23
2022-08-01T19:33:52.467Z,51.05
2022-08-01T19:36:20.556Z,51.46
2022-08-01T19:38:47.858Z,51.70
2022-08-01T19:41:16.844Z,51.58
2022-08-01T19:43:46.712Z,51.48
2022-08-01T19:46:18.042Z,51.67
2022-08-01T19:48:49.969Z,52.06
2022-08-01T19:51:22.035Z,52.17
2022-08-01T19:53:55.475Z,51.98
2022-08-01T19:56:26.148Z,52.21
2022-08-01T19:59:00.122Z,52.84
2022-08-01T20:01:27.548Z,53.04
2022-08-01T20:03:56.013Z,53.05
2022-08-01T20:06:24.554Z,53.01
2022-08-01T20:08:54.611Z,53.51
2022-08-01T20:11:23.388Z,53.55
2022-08-01T20:13:51.879Z,53.71
2022-08-01T20:16:19.069Z,53.63
2022-08-01T20:18:46.166Z,53.38
2022-08-01T20:21:14.321Z,54.83
2022-08-01T20:23:43.638Z,54.88
2022-08-01T20:26:12.896Z,55.87
2022-08-01T20:28:43.872Z,55.32
2022-08-01T20:31:11.264Z,57.17
2022-08-01T20:33:46.318Z,58.53
2022-08-01T20:36:24.965Z,58.06
2022-08-01T20:38:56.489Z,57.26
2022-08-01T20:41:28.556Z,56.54
2022-08-01T20:43:57.090Z,57.67
2022-08-01T20:46:28.841Z,57.02
2022-08-01T20:48:57.735Z,55.94
2022-08-01T20:51:26.398Z,55.94
2022-08-01T20:53:54.240Z,55.81
2022-08-01T20:56:36.936Z,56.93
2022-08-01T20:59:39.806Z,57.74
2022-08-01T21:02:30.383Z,57.54
2022-08-01T21:05:12.741Z,57.18
2022-08-01T21:07:53.749Z,56.34
2022-08-01T21:10:24.295Z,56.16
2022-08-01T21:13:06.156Z,57.71
2022-08-01T21:15:59.870Z,56.39
2022-08-01T21:19:03.611Z,56.78
2022-08-01T21:21:36.271Z,57.86
2022-08-01T21:24:10.180Z,56.68
2022-08-01T21:26:37.146Z,58.09
2022-08-01T21:29:06.807Z,58.55
2022-08-01T21:31:40.507Z,60.22
2022-08-01T21:34:09.191Z,60.29
2022-08-01T21:36:36.937Z,60.19
2022-08-01T21:39:06.371Z,61.84
2022-08-01T21:41:56.205Z,61.58
2022-08-01T21:44:28.535Z,60.08
2022-08-01T21:47:00.256Z,62.37
2022-08-01T21:49:27.719Z,62.93
2022-08-01T21:52:05.265Z,62.40
2022-08-01T21:54:57.523Z,63.64
2022-08-01T21:57:32.417Z,63.06
2022-08-01T22:00:08.593Z,65.46
2022-08-01T22:02:39.242Z,65.76
2022-08-01T22:05:09.472Z,66.33
2022-08-01T22:08:02.930Z,67.78
2022-08-01T22:10:31.397Z,65.91
2022-08-01T22:12:58.451Z,64.90
2022-08-01T22:15:45.071Z,66.82
2022-08-01T22:18:12.616Z,67.00
2022-08-01T22:20:40.101Z,67.74
2022-08-01T22:23:07.023Z,66.44
2022-08-01T22:25:34.301Z,65.05
2022-08-01T22:28:02.803Z,69.03
2022-08-01T22:30:41.477Z,64.76
2022-08-01T22:33:16.345Z,64.71
2022-08-01T22:35:46.935Z,63.47
2022-08-01T22:38:16.736Z,68.50
2022-08-01T22:40:49.142Z,67.13
2022-08-01T22:43:30.459Z,67.75
2022-08-01T22:46:15.951Z,67.86
2022-08-01T22:48:49.668Z,67.77
2022-08-01T22:51:34.304Z,68.83
2022-08-01T22:54:14.438Z,69.71
2022-08-01T22:56:50.703Z,68.71
2022-08-01T22:59:23.576Z,68.38
2022-08-01T23:01:51.217Z,69.08
2022-08-01T23:04:48.541Z,70.49
2022-08-01T23:07:31.902Z,70.95
2022-08-01T23:09:59.012Z,69.84
2022-08-01T23:12:27.205Z,70.28
2022-08-01T23:14:56.099Z,70.10
2022-08-01T23:17:26.527Z,70.63
2022-08-01T23:20:04.419Z,71.33
2022-08-01T23:22:34.378Z,70.89
2022-08-01T23:25:06.042Z,71.74
2022-08-01T23:27:55.679Z,71.00
2022-08-01T23:30:25.689Z,70.49
2022-08-01T23:32:52.993Z,71.04
2022-08-01T23:35:19.937Z,71.44
2022-08-01T23:37:46.954Z,71.51
2022-08-01T23:40:13.938Z,71.87
2022-08-01T23:42:40.850Z,72.92
2022-08-01T23:45:08.232Z,72.72
2022-08-01T23:47:35.259Z,73.28
2022-08-01T23:50:02.176Z,72.15
2022-08-01T23:52:30.956Z,72.56
2022-08-01T23:55:03.356Z,74.13
2022-08-01T23:57:41.976Z,73.41
